Time;durP1;ratioP1;P1;durP2;ratioP2;P2;SDS_P1;SDS_P2;PMS_P1;PMS_P2;Temp;Humidity;BMP_temperature;BMP_pressure;BME280_temperature;BME280_humidity;BME280_pressure;Samples;Min_cycle;Max_cycle;Signal;HPM_P1;HPM_P2
2022/05/29 00:00:09;;;;;;;9.30;5.30;;;;;;;19.93;100.00;98996.66;5093381;28;20199;-73
2022/05/29 00:02:36;;;;;;;13.47;5.40;;;;;;;20.08;100.00;98985.84;5094018;28;20198;-73
2022/05/29 00:05:05;;;;;;;10.10;4.97;;;;;;;20.18;100.00;98977.81;5092994;28;20252;-74
2022/05/29 00:07:32;;;;;;;7.77;4.50;;;;;;;20.29;99.11;98982.09;5093329;28;20195;-74
2022/05/29 00:09:58;;;;;;;8.53;5.00;;;;;;;20.32;99.26;98992.38;5093673;28;20191;-74
2022/05/29 00:12:25;;;;;;;9.67;4.83;;;;;;;20.37;100.00;98977.00;5092894;28;20249;-74
2022/05/29 00:14:52;;;;;;;9.30;5.50;;;;;;;20.45;100.00;98968.34;5094022;28;20194;-74
2022/05/29 00:17:20;;;;;;;7.23;4.50;;;;;;;20.53;98.50;98937.28;5093184;28;20227;-73
2022/05/29 00:19:47;;;;;;;7.00;5.13;;;;;;;20.50;97.29;98917.06;5093098;28;20221;-74
2022/05/29 00:22:18;;;;;;;11.07;4.87;;;;;;;20.54;97.35;98933.50;5093087;28;20191;-74
2022/05/29 00:24:46;;;;;;;7.87;5.00;;;;;;;20.61;96.97;98939.44;5092886;28;20224;-72
2022/05/29 00:27:16;;;;;;;7.13;4.13;;;;;;;20.66;96.51;98930.53;5078788;28;20241;-72
2022/05/29 00:29:43;;;;;;;6.83;5.00;;;;;;;20.66;95.58;98928.63;5092204;28;20191;-74
2022/05/29 00:32:11;;;;;;;12.17;4.90;;;;;;;20.68;95.91;98923.75;5091959;28;20195;-72
2022/05/29 00:34:38;;;;;;;7.60;5.03;;;;;;;20.69;95.34;98922.69;5090222;28;20248;-74
2022/05/29 00:37:07;;;;;;;11.13;5.10;;;;;;;20.72;94.52;98918.63;5092336;28;20698;-73
2022/05/29 00:39:35;;;;;;;7.63;4.37;;;;;;;20.77;94.19;98915.88;5092395;28;20195;-74
2022/05/29 00:42:04;;;;;;;4.77;4.37;;;;;;;20.79;94.53;98917.25;5092206;28;20184;-74
2022/05/29 00:44:32;;;;;;;8.97;4.97;;;;;;;20.75;94.39;98928.88;5092622;28;20195;-73
2022/05/29 00:47:01;;;;;;;10.63;4.50;;;;;;;20.70;94.08;98934.28;5092425;28;20259;-74
2022/05/29 00:49:31;;;;;;;8.07;4.33;;;;;;;20.69;94.45;98930.78;5091989;28;20710;-73
2022/05/29 00:52:01;;;;;;;5.50;3.87;;;;;;;20.58;95.54;98907.59;5092046;28;20248;-73
2022/05/29 00:54:31;;;;;;;4.70;4.10;;;;;;;20.56;93.25;98898.97;5091607;28;20184;-72
2022/05/29 00:56:59;;;;;;;7.67;4.33;;;;;;;20.57;93.81;98880.91;5092253;28;20272;-72
2022/05/29 00:59:30;;;;;;;5.37;4.50;;;;;;;20.45;92.97;98849.63;5091972;28;20249;-72
2022/05/29 01:01:57;;;;;;;9.23;4.80;;;;;;;20.58;93.43;98874.41;5092056;28;20191;-72
2022/05/29 01:04:24;;;;;;;6.17;4.40;;;;;;;20.58;94.20;98875.19;5092038;28;20196;-72
2022/05/29 01:06:52;;;;;;;7.57;4.43;;;;;;;20.61;92.99;98874.66;5092229;28;20204;-73
2022/05/29 01:09:18;;;;;;;7.60;3.80;;;;;;;20.55;93.24;98875.78;5092712;28;20219;-73
2022/05/29 01:12:00;;;;;;;8.93;4.63;;;;;;;20.56;93.06;98882.78;5091980;28;20592;-73
2022/05/29 01:14:35;;;;;;;8.63;4.27;;;;;;;20.58;92.22;98885.22;5092510;28;20187;-73
2022/05/29 01:17:11;;;;;;;11.87;4.10;;;;;;;20.59;91.73;98879.53;5092425;28;20246;-74
2022/05/29 01:20:07;;;;;;;8.10;4.37;;;;;;;20.62;91.85;98880.88;5091862;28;20236;-74
2022/05/29 01:23:05;;;;;;;9.33;4.07;;;;;;;20.61;94.04;98890.84;5092855;28;20278;-73
2022/05/29 01:26:02;;;;;;;8.33;4.37;;;;;;;20.64;92.16;98903.81;5065829;28;20230;-73
2022/05/29 01:28:45;;;;;;;6.07;4.17;;;;;;;20.70;91.71;98926.97;5092799;28;20195;-73
2022/05/29 01:31:15;;;;;;;5.30;3.90;;;;;;;20.69;91.51;98941.56;5092044;28;20248;-73
2022/05/29 01:33:47;;;;;;;4.33;3.93;;;;;;;20.74;90.74;98954.25;5091746;28;20201;-74
2022/05/29 01:36:27;;;;;;;7.43;4.07;;;;;;;20.76;91.32;98958.28;5091406;28;20654;-73
2022/05/29 01:39:00;;;;;;;5.27;3.77;;;;;;;20.74;91.38;98960.44;5091968;28;20720;-73
2022/05/29 01:41:33;;;;;;;8.17;4.10;;;;;;;20.84;90.94;98960.44;5092161;28;20274;-73
2022/05/29 01:44:07;;;;;;;4.77;3.73;;;;;;;20.86;88.91;98960.94;5091787;28;20190;-73
2022/05/29 01:46:35;;;;;;;6.60;4.50;;;;;;;20.84;88.10;98949.63;5091828;28;20213;-73
2022/05/29 01:49:13;;;;;;;5.93;4.17;;;;;;;20.89;88.20;98946.91;5091877;28;20353;-73
2022/05/29 01:51:46;;;;;;;8.20;4.63;;;;;;;20.92;88.26;98969.88;5091835;28;20255;-74
2022/05/29 01:54:24;;;;;;;5.47;4.07;;;;;;;20.92;88.86;98986.91;5091413;28;20180;-73
2022/05/29 01:56:56;;;;;;;9.27;4.27;;;;;;;20.88;89.05;98980.41;5091980;28;20218;-72
2022/05/29 01:59:31;;;;;;;7.33;4.43;;;;;;;20.86;88.59;98965.56;5091479;28;20737;-73
2022/05/29 02:02:02;;;;;;;10.77;4.27;;;;;;;20.80;87.93;98929.66;5091633;28;20198;-74
2022/05/29 02:04:31;;;;;;;4.87;4.37;;;;;;;20.70;87.56;98878.41;5091556;28;20634;-73
2022/05/29 02:09:51;;;;;;;8.13;4.07;;;;;;;20.63;87.77;98896.78;5095563;28;20182;-73
2022/05/29 02:12:24;;;;;;;5.67;4.67;;;;;;;20.66;89.32;98952.91;5095387;28;20249;-73
2022/05/29 02:14:57;;;;;;;10.53;4.97;;;;;;;20.23;92.07;98985.91;5095515;28;20191;-73
2022/05/29 02:17:28;;;;;;;10.43;4.90;;;;;;;19.41;97.16;98985.22;5095088;28;20257;-73
2022/05/29 02:20:04;;;;;;;9.80;4.87;;;;;;;19.39;97.87;99016.97;5094896;28;20187;-72
2022/05/29 02:22:35;;;;;;;5.47;4.90;;;;;;;19.24;99.50;99025.03;5095072;28;20187;-72
2022/05/29 02:25:06;;;;;;;5.13;4.27;;;;;;;19.24;100.00;99008.88;5094970;28;20651;-72
2022/05/29 02:27:37;;;;;;;8.93;4.97;;;;;;;19.20;100.00;98981.59;5095128;28;20193;-72
2022/05/29 02:30:07;;;;;;;10.73;4.73;;;;;;;19.28;99.93;98950.72;5094694;28;20187;-72
2022/05/29 02:32:41;;;;;;;6.93;5.13;;;;;;;19.41;100.00;98944.81;5095110;28;20246;-72
2022/05/29 02:35:13;;;;;;;10.87;4.97;;;;;;;19.53;99.25;98937.31;5094855;28;20304;-73
2022/05/29 02:37:45;;;;;;;10.77;4.70;;;;;;;19.71;99.20;98947.56;5094571;28;20229;-72
2022/05/29 02:40:22;;;;;;;9.50;4.80;;;;;;;19.87;98.50;98965.38;5095074;28;20186;-72
2022/05/29 02:43:02;;;;;;;7.83;4.20;;;;;;;19.97;97.87;98978.88;5095579;28;20552;-73
2022/05/29 02:45:36;;;;;;;11.23;4.23;;;;;;;20.06;97.27;98979.94;5095284;28;20248;-72
2022/05/29 02:48:09;;;;;;;8.47;4.77;;;;;;;20.08;97.35;98966.97;5094929;28;20183;-72
2022/05/29 02:50:44;;;;;;;11.43;4.10;;;;;;;20.13;98.32;98975.09;5094819;28;20288;-72
2022/05/29 02:53:13;;;;;;;13.57;5.37;;;;;;;20.14;96.29;98982.13;5095393;28;20186;-72
2022/05/29 02:55:41;;;;;;;6.33;4.80;;;;;;;20.07;96.86;98997.72;5094235;28;20190;-72
2022/05/29 02:58:18;;;;;;;8.30;4.87;;;;;;;20.12;97.38;99024.72;5094267;28;20276;-72
2022/05/29 03:01:04;;;;;;;6.63;5.07;;;;;;;20.04;98.54;99019.84;5094855;28;20186;-72
2022/05/29 03:03:35;;;;;;;14.00;5.40;;;;;;;20.05;98.44;99010.69;5094491;28;20232;-72
2022/05/29 03:06:15;;;;;;;6.83;4.97;;;;;;;20.09;99.46;99012.59;5094155;28;20245;-73
2022/05/29 03:08:55;;;;;;;11.30;4.90;;;;;;;20.18;97.10;99018.28;5094126;28;20639;-72
2022/05/29 03:11:30;;;;;;;7.80;5.00;;;;;;;20.30;97.16;99016.13;5094131;28;20694;-72
2022/05/29 03:14:02;;;;;;;6.83;4.43;;;;;;;20.42;95.56;98998.56;5093850;28;20234;-72
2022/05/29 03:16:42;;;;;;;8.10;3.90;;;;;;;20.52;94.59;98986.94;5093664;28;20183;-73
2022/05/29 03:19:20;;;;;;;7.17;4.57;;;;;;;20.62;94.13;98973.44;5093635;28;20723;-72
2022/05/29 03:21:51;;;;;;;9.10;5.13;;;;;;;20.73;93.71;98980.44;5093784;28;20205;-72
2022/05/29 03:24:24;;;;;;;7.43;4.67;;;;;;;20.82;92.52;98983.38;5093286;28;20647;-73
2022/05/29 03:26:58;;;;;;;5.63;4.43;;;;;;;20.86;92.37;98990.66;5093500;28;20192;-73
2022/05/29 03:29:31;;;;;;;8.47;4.70;;;;;;;20.95;91.65;98986.31;5093369;28;20184;-73
2022/05/29 03:31:59;;;;;;;6.00;4.30;;;;;;;21.00;90.56;98974.72;5093438;28;20183;-73
2022/05/29 03:34:26;;;;;;;6.60;4.77;;;;;;;21.09;89.99;98952.25;5093373;28;20248;-73
2022/05/29 03:36:53;;;;;;;6.53;4.13;;;;;;;21.17;90.34;98932.78;5093328;28;20620;-72
2022/05/29 03:39:20;;;;;;;6.90;4.37;;;;;;;21.29;89.09;98946.75;5093312;28;20241;-72
2022/05/29 03:41:49;;;;;;;13.43;5.13;;;;;;;21.35;88.28;98953.75;5093117;28;20754;-72
2022/05/29 03:44:20;;;;;;;7.27;5.00;;;;;;;21.39;87.58;98952.09;5093683;28;20187;-72
2022/05/29 03:46:47;;;;;;;7.43;5.00;;;;;;;21.43;87.92;98936.16;5093572;28;20582;-72
2022/05/29 03:49:17;;;;;;;4.57;4.10;;;;;;;21.38;88.17;98891.03;5093188;28;20199;-72
2022/05/29 03:51:44;;;;;;;8.80;4.83;;;;;;;21.44;87.12;98884.50;5093648;28;20343;-72
2022/05/29 03:54:11;;;;;;;6.57;4.80;;;;;;;21.48;87.66;98882.84;5094144;28;20191;-72
2022/05/29 03:56:39;;;;;;;6.77;5.13;;;;;;;21.49;87.58;98886.38;5092621;28;20248;-73
2022/05/29 03:59:05;;;;;;;7.57;4.70;;;;;;;21.58;87.59;98900.91;5092627;28;20710;-72
2022/05/29 04:01:33;;;;;;;5.30;4.90;;;;;;;21.62;87.18;98902.78;5092894;28;20187;-72
2022/05/29 04:04:01;;;;;;;6.63;4.67;;;;;;;21.64;86.96;98900.59;5093127;28;20197;-72
2022/05/29 04:06:34;;;;;;;5.37;3.50;;;;;;;21.79;88.75;98905.91;5092834;28;20617;-65
2022/05/29 04:14:30;;;;;;;6.47;4.90;;;;;;;22.18;84.09;98890.44;5092898;28;20309;-64
2022/05/29 04:16:57;;;;;;;9.23;4.90;;;;;;;22.22;84.82;98877.13;5093087;28;20191;-65
2022/05/29 04:19:24;;;;;;;5.50;5.00;;;;;;;22.35;84.09;98884.56;5093108;28;20199;-65
2022/05/29 04:21:52;;;;;;;6.63;5.20;;;;;;;22.35;82.50;98890.81;5092233;28;20655;-65
2022/05/29 04:24:20;;;;;;;7.73;5.03;;;;;;;22.52;81.99;98893.88;5092248;28;20196;-64
2022/05/29 04:26:48;;;;;;;7.07;5.60;;;;;;;22.80;80.61;98906.56;5092551;28;20730;-64
2022/05/29 04:29:15;;;;;;;7.87;4.63;;;;;;;23.01;81.51;98904.41;5092248;28;20192;-65
2022/05/29 04:32:59;;;;;;;11.90;5.10;;;;;;;23.53;79.64;98918.59;5092827;28;20196;-64
2022/05/29 04:34:29;;;;;;;13.13;5.27;;;;;;;24.64;76.39;98936.59;5091735;28;20192;-73
2022/05/29 04:36:57;;;;;;;10.13;4.87;;;;;;;25.33;73.37;98935.47;5091895;28;20714;-72
2022/05/29 04:39:25;;;;;;;5.97;5.10;;;;;;;26.14;69.69;98940.69;5092337;28;20276;-72
2022/05/29 04:41:52;;;;;;;7.90;4.20;;;;;;;26.80;67.60;98910.59;5091018;28;20263;-72
2022/05/29 04:44:18;;;;;;;6.53;4.73;;;;;;;27.36;66.42;98902.44;5090255;28;20195;-72
2022/05/29 04:46:45;;;;;;;7.43;5.00;;;;;;;27.74;63.94;98908.84;5091579;28;20191;-72
2022/05/29 04:49:12;;;;;;;8.80;4.53;;;;;;;28.14;61.90;98913.03;5091274;28;20256;-72
2022/05/29 04:51:39;;;;;;;8.07;4.17;;;;;;;28.02;61.46;98908.19;5091906;28;20179;-72
2022/05/29 04:54:07;;;;;;;7.27;3.83;;;;;;;27.61;62.71;98912.56;5090618;28;20187;-72
2022/05/29 04:56:33;;;;;;;9.73;4.40;;;;;;;27.26;64.10;98921.81;5089605;28;20628;-72
2022/05/29 04:59:00;;;;;;;6.03;4.63;;;;;;;26.92;65.01;98914.34;5089974;28;20319;-72
2022/05/29 05:01:27;;;;;;;7.00;4.30;;;;;;;26.64;65.19;98917.59;5089733;28;20280;-72
2022/05/29 05:03:54;;;;;;;9.23;5.20;;;;;;;26.43;66.76;98916.50;5090710;28;20651;-72
2022/05/29 05:06:21;;;;;;;10.53;4.13;;;;;;;26.24;67.70;98919.44;5091147;28;20194;-72
2022/05/29 05:08:48;;;;;;;10.77;4.33;;;;;;;26.12;68.71;98930.09;5091401;28;20194;-72
2022/05/29 05:11:16;;;;;;;6.73;4.60;;;;;;;25.95;69.45;98927.25;5091800;28;20214;-72
2022/05/29 05:13:42;;;;;;;6.43;4.50;;;;;;;25.86;69.31;98922.81;5092369;28;20195;-72
2022/05/29 05:16:09;;;;;;;5.70;4.63;;;;;;;25.86;69.96;98922.81;5092198;28;20242;-72
2022/05/29 05:18:36;;;;;;;9.63;3.80;;;;;;;25.85;67.98;98926.66;5091525;28;20775;-72
2022/05/29 05:21:05;;;;;;;10.40;5.00;;;;;;;25.81;68.64;98936.56;5091739;28;20732;-72
2022/05/29 05:23:32;;;;;;;8.83;4.47;;;;;;;25.74;69.06;98925.28;5091931;28;20195;-72
2022/05/29 05:25:59;;;;;;;12.50;4.90;;;;;;;25.83;68.74;98918.00;5091894;28;20712;-72
2022/05/29 05:28:27;;;;;;;11.33;4.27;;;;;;;25.93;64.89;98915.03;5091814;28;20191;-72
2022/05/29 05:30:54;;;;;;;7.70;3.83;;;;;;;25.85;65.06;98905.69;5091512;28;20655;-72
2022/05/29 05:33:21;;;;;;;8.57;5.00;;;;;;;25.75;64.83;98916.81;5091726;28;20191;-72
2022/05/29 05:35:48;;;;;;;5.13;4.63;;;;;;;25.77;64.23;98930.94;5091693;28;20260;-72
2022/05/29 05:38:15;;;;;;;5.43;4.47;;;;;;;25.66;65.26;98928.75;5091581;28;20229;-72
2022/05/29 05:40:41;;;;;;;8.63;4.70;;;;;;;25.70;64.60;98924.28;5092457;28;20698;-72
2022/05/29 05:43:08;;;;;;;12.37;4.50;;;;;;;25.68;64.62;98927.31;5095641;28;20244;-72
2022/05/29 05:45:37;;;;;;;6.83;5.03;;;;;;;25.50;64.27;98924.75;5095528;28;20584;-72
2022/05/29 05:48:04;;;;;;;8.13;4.80;;;;;;;25.28;65.62;98917.38;5095594;28;20629;-72
2022/05/29 05:50:31;;;;;;;9.50;4.90;;;;;;;25.13;65.38;98935.88;5095647;28;20230;-72
2022/05/29 05:52:58;;;;;;;11.83;4.43;;;;;;;25.02;66.51;98929.06;5096202;28;20211;-72
2022/05/29 05:55:24;;;;;;;8.87;4.43;;;;;;;25.08;66.45;98927.84;5095414;28;20216;-72
2022/05/29 05:57:53;;;;;;;7.50;5.10;;;;;;;25.21;67.04;98929.72;5095675;28;20640;-72
2022/05/29 06:00:21;;;;;;;8.90;5.07;;;;;;;25.34;67.55;98923.47;5095509;28;20195;-72
2022/05/29 06:02:49;;;;;;;9.20;4.90;;;;;;;25.64;65.66;98920.88;5090694;28;20198;-73
2022/05/29 06:05:16;;;;;;;7.70;4.80;;;;;;;25.75;64.76;98927.72;5095284;28;20252;-72
2022/05/29 06:07:46;;;;;;;6.77;4.97;;;;;;;25.97;65.10;98929.69;5094854;28;20621;-73
2022/05/29 06:10:13;;;;;;;6.33;4.40;;;;;;;26.37;64.55;98928.66;5095547;28;20202;-72
2022/05/29 06:12:41;;;;;;;7.10;4.50;;;;;;;26.81;64.13;98932.09;5094835;28;20191;-72
2022/05/29 06:15:09;;;;;;;6.13;4.67;;;;;;;26.90;62.29;98932.13;5094842;28;20673;-72
2022/05/29 06:17:36;;;;;;;7.63;4.30;;;;;;;26.74;63.65;98929.00;5094911;28;20187;-72
2022/05/29 06:20:06;;;;;;;7.07;4.70;;;;;;;26.54;65.14;98923.28;5094562;28;20191;-72
2022/05/29 06:22:36;;;;;;;6.03;4.90;;;;;;;26.41;65.90;98913.28;5094982;28;20191;-72
2022/05/29 06:25:03;;;;;;;7.40;4.40;;;;;;;26.24;66.71;98896.84;5094813;28;20187;-72
2022/05/29 06:27:30;;;;;;;10.17;4.93;;;;;;;26.07;66.92;98913.06;5094764;28;20240;-72
2022/05/29 06:29:57;;;;;;;11.23;4.90;;;;;;;25.92;68.03;98902.56;5095096;28;20210;-72
2022/05/29 06:32:23;;;;;;;12.87;5.13;;;;;;;25.79;68.33;98884.34;5095341;28;20249;-72
2022/05/29 06:34:50;;;;;;;8.73;4.90;;;;;;;25.85;68.31;98899.44;5094534;28;20253;-72
2022/05/29 06:37:18;;;;;;;6.37;4.80;;;;;;;25.87;68.21;98892.59;5094348;28;20218;-72
2022/05/29 06:39:45;;;;;;;11.33;5.17;;;;;;;25.88;67.76;98898.84;5094310;28;20227;-72
2022/05/29 06:42:13;;;;;;;9.37;4.50;;;;;;;25.81;67.77;98893.03;5094585;28;20248;-73
2022/05/29 06:44:40;;;;;;;8.77;5.13;;;;;;;25.75;67.50;98905.13;5093976;28;20694;-73
2022/05/29 06:47:09;;;;;;;12.00;6.83;;;;;;;25.63;68.64;98913.06;5094070;28;20198;-73
2022/05/29 06:49:37;;;;;;;7.73;4.97;;;;;;;25.61;68.74;98910.63;5094150;28;20678;-72
2022/05/29 06:52:07;;;;;;;18.10;4.93;;;;;;;25.67;68.36;98919.47;5093889;28;20192;-72
2022/05/29 06:54:36;;;;;;;10.87;4.70;;;;;;;25.87;68.20;98925.25;5094100;28;20281;-72
2022/05/29 06:57:04;;;;;;;9.57;4.90;;;;;;;25.97;67.89;98916.84;5093814;28;20244;-72
2022/05/29 06:59:31;;;;;;;9.07;5.33;;;;;;;25.99;68.12;98932.88;5093923;28;20223;-72
2022/05/29 07:07:28;;;;;;;6.83;5.30;;;;;;;26.49;65.89;98912.50;5093544;28;20298;-73
2022/05/29 07:09:56;;;;;;;7.30;4.67;;;;;;;26.53;65.80;98902.59;5093956;28;20229;-72
2022/05/29 07:12:26;;;;;;;8.40;4.47;;;;;;;26.83;65.42;98913.47;5093325;28;20633;-72
2022/05/29 07:14:57;;;;;;;6.97;4.33;;;;;;;26.98;63.66;98912.25;5093864;28;20179;-71
2022/05/29 07:17:26;;;;;;;8.93;4.33;;;;;;;27.25;62.99;98918.28;5093469;28;20188;-72
2022/05/29 07:19:52;;;;;;;4.97;4.43;;;;;;;27.26;62.70;98913.63;5093192;28;20215;-72
2022/05/29 07:22:19;;;;;;;8.53;4.40;;;;;;;27.15;63.06;98917.75;5093787;28;20620;-72
2022/05/29 07:24:46;;;;;;;8.07;4.70;;;;;;;27.26;63.11;98919.09;5093444;28;20622;-72
2022/05/29 07:27:14;;;;;;;12.03;4.90;;;;;;;27.24;63.50;98910.44;5093374;28;20244;-72
2022/05/29 07:29:42;;;;;;;7.60;4.80;;;;;;;27.37;63.48;98914.94;5093575;28;20320;-72
2022/05/29 07:32:08;;;;;;;10.27;4.83;;;;;;;27.64;63.04;98911.91;5093441;28;20738;-73
2022/05/29 07:34:35;;;;;;;8.63;5.20;;;;;;;28.12;61.15;98912.53;5093206;28;20209;-72
2022/05/29 07:37:05;;;;;;;13.40;7.63;;;;;;;28.54;59.26;98914.41;5093062;28;20543;-73
2022/05/29 07:39:36;;;;;;;10.47;5.47;;;;;;;28.76;56.85;98905.94;5093381;28;20219;-72
2022/05/29 07:44:48;;;;;;;9.90;6.73;;;;;;;28.92;57.45;98893.31;5092958;28;20229;-72
2022/05/29 07:47:15;;;;;;;10.67;4.60;;;;;;;29.07;57.11;98893.56;5092768;28;20199;-73
2022/05/29 07:49:42;;;;;;;9.20;4.27;;;;;;;29.25;56.66;98894.25;5092470;28;20263;-73
2022/05/29 07:52:08;;;;;;;7.63;4.90;;;;;;;29.33;56.13;98896.13;5092520;28;20593;-73
2022/05/29 07:54:35;;;;;;;9.97;4.63;;;;;;;29.57;54.16;98896.31;5092380;28;20572;-72
2022/05/29 07:57:02;;;;;;;8.03;4.70;;;;;;;29.56;53.08;98896.63;5092821;28;20264;-73
2022/05/29 07:59:29;;;;;;;10.07;5.07;;;;;;;29.40;53.21;98896.41;5092421;28;20219;-73
2022/05/29 08:01:57;;;;;;;5.37;4.80;;;;;;;29.44;54.53;98894.63;5093047;28;20266;-73
2022/05/29 08:04:24;;;;;;;7.07;4.70;;;;;;;29.48;53.72;98878.31;5092757;28;20625;-72
2022/05/29 08:06:51;;;;;;;7.03;4.80;;;;;;;29.30;53.61;98891.31;5092478;28;20191;-73
2022/05/29 08:09:18;;;;;;;6.57;4.97;;;;;;;29.33;53.78;98885.19;5092527;28;20558;-73
2022/05/29 08:11:45;;;;;;;6.47;4.97;;;;;;;29.49;52.94;98878.00;5092972;28;20261;-73
2022/05/29 08:14:12;;;;;;;6.23;4.73;;;;;;;29.56;53.87;98871.97;5092527;28;20248;-73
2022/05/29 08:16:39;;;;;;;8.67;4.70;;;;;;;29.82;52.62;98876.13;5092684;28;20192;-73
2022/05/29 08:19:08;;;;;;;10.80;5.03;;;;;;;29.99;53.21;98875.13;5092689;28;20219;-73
2022/05/29 08:21:34;;;;;;;9.97;4.47;;;;;;;30.20;51.75;98884.13;5092481;28;20195;-73
2022/05/29 08:32:14;;;;;;;7.07;4.33;;;;;;;29.69;52.39;98877.22;5091554;28;20633;-72
2022/05/29 08:34:43;;;;;;;8.57;4.90;;;;;;;29.71;51.83;98874.91;5091465;28;20741;-73
2022/05/29 08:37:11;;;;;;;9.20;4.40;;;;;;;29.72;53.21;98875.72;5091783;28;20199;-73
2022/05/29 08:39:37;;;;;;;9.03;5.23;;;;;;;29.76;52.59;98877.44;5077829;28;20297;-73
2022/05/29 08:42:06;;;;;;;9.57;4.60;;;;;;;29.91;51.48;98863.13;5072075;28;20192;-72
2022/05/29 08:44:39;;;;;;;10.83;5.10;;;;;;;29.91;52.17;98870.53;5071495;28;20200;-73
2022/05/29 08:47:06;;;;;;;8.53;4.17;;;;;;;29.91;52.06;98868.63;5072060;28;20191;-73
2022/05/29 08:49:38;;;;;;;9.87;5.97;;;;;;;30.03;51.90;98876.88;5071428;28;20680;-73
2022/05/29 08:52:19;;;;;;;8.73;4.70;;;;;;;30.16;51.24;98864.84;5071794;28;20253;-72
2022/05/29 08:54:53;;;;;;;6.43;3.93;;;;;;;30.16;50.98;98859.34;5071552;28;20709;-72
2022/05/29 08:57:49;;;;;;;8.70;4.90;;;;;;;30.30;51.47;98859.84;5071802;28;20191;-72
2022/05/29 09:00:22;;;;;;;5.90;4.67;;;;;;;30.29;50.56;98858.22;5065002;28;20253;-73
2022/05/29 09:02:59;;;;;;;12.07;8.47;;;;;;;30.31;51.89;98845.00;5071178;28;20245;-72
2022/05/29 09:05:35;;;;;;;7.93;3.90;;;;;;;30.35;51.22;98862.38;5071522;28;20188;-73
2022/05/29 09:08:10;;;;;;;6.27;4.30;;;;;;;30.48;49.77;98853.00;5072223;28;20188;-74
2022/05/29 09:10:41;;;;;;;10.97;3.90;;;;;;;30.57;50.09;98837.25;5071265;28;20252;-73
2022/05/29 09:13:14;;;;;;;11.33;4.40;;;;;;;30.65;49.93;98828.09;5071218;28;20188;-72
2022/05/29 09:15:45;;;;;;;6.33;3.40;;;;;;;30.59;47.01;98845.94;5070934;28;20191;-73
2022/05/29 09:18:16;;;;;;;7.77;3.77;;;;;;;30.17;48.99;98839.03;5071116;28;20184;-73
2022/05/29 09:20:48;;;;;;;5.63;3.60;;;;;;;30.13;49.73;98807.94;5071451;28;20207;-72
2022/05/29 09:23:25;;;;;;;10.13;4.03;;;;;;;30.30;49.29;98816.00;5071347;28;20184;-73
2022/05/29 09:25:54;;;;;;;5.83;4.07;;;;;;;29.98;51.42;98816.00;5070879;28;20230;-74
2022/05/29 09:28:25;;;;;;;6.63;3.90;;;;;;;29.90;50.84;98817.72;5071635;28;20274;-72
2022/05/29 09:30:55;;;;;;;12.73;4.10;;;;;;;29.75;52.11;98803.84;5071503;28;20206;-72
2022/05/29 09:33:25;;;;;;;7.90;4.10;;;;;;;29.67;52.86;98802.03;5071498;28;20220;-72
2022/05/29 09:36:00;;;;;;;10.60;4.50;;;;;;;29.64;52.42;98799.94;5070984;28;20709;-73
2022/05/29 09:38:32;;;;;;;8.07;4.23;;;;;;;29.51;52.64;98801.78;5071439;28;20643;-72
2022/05/29 09:41:05;;;;;;;10.37;4.23;;;;;;;29.42;53.30;98806.56;5071084;28;20674;-73
2022/05/29 09:43:32;;;;;;;10.57;4.37;;;;;;;29.33;53.79;98800.34;5071544;28;20188;-73
2022/05/29 09:46:19;;;;;;;7.80;3.73;;;;;;;29.32;54.14;98784.28;5071466;28;20196;-73
2022/05/29 09:51:42;;;;;;;10.00;4.50;;;;;;;29.60;53.11;98775.16;5071832;28;20187;-73
2022/05/29 09:54:23;;;;;;;7.27;3.97;;;;;;;29.77;53.17;98764.06;5071391;28;20196;-73
2022/05/29 09:56:49;;;;;;;10.03;4.33;;;;;;;29.59;52.67;98754.41;5071710;28;20539;-73
2022/05/29 09:59:19;;;;;;;12.47;4.00;;;;;;;29.58;52.62;98749.25;5071262;28;20305;-74
2022/05/29 10:01:49;;;;;;;11.47;4.57;;;;;;;29.57;53.00;98759.44;5071631;28;20192;-74
2022/05/29 10:04:48;;;;;;;8.87;4.23;;;;;;;29.38;53.62;98690.69;5071459;28;20254;-74
2022/05/29 10:07:44;;;;;;;8.97;4.17;;;;;;;29.93;53.33;98734.06;5070736;28;20184;-75
2022/05/29 10:10:29;;;;;;;8.13;4.50;;;;;;;30.17;53.06;98723.16;5066406;28;20189;-73
2022/05/29 10:12:58;;;;;;;11.20;4.63;;;;;;;30.32;51.87;98726.00;5050653;28;20667;-74
2022/05/29 10:15:40;;;;;;;7.63;4.50;;;;;;;30.49;50.63;98722.22;5050896;28;20239;-72
2022/05/29 10:18:32;;;;;;;8.10;4.37;;;;;;;30.61;49.79;98733.97;5051708;28;20185;-73
2022/05/29 10:21:09;;;;;;;4.90;3.83;;;;;;;30.69;49.81;98719.34;5050985;28;20228;-72
2022/05/29 10:23:37;;;;;;;13.40;4.57;;;;;;;30.66;50.16;98714.53;5050851;28;20307;-72
2022/05/29 10:26:13;;;;;;;4.93;4.37;;;;;;;30.68;50.34;98722.41;5051025;28;20255;-72
2022/05/29 10:28:42;;;;;;;9.53;4.60;;;;;;;30.48;50.06;98712.38;5053909;28;20258;-71
2022/05/29 10:31:11;;;;;;;7.43;5.13;;;;;;;30.61;50.79;98720.25;5054801;28;20262;-71
2022/05/29 10:33:38;;;;;;;5.43;4.50;;;;;;;30.47;51.40;98700.63;5054867;28;20259;-72
2022/05/29 10:36:14;;;;;;;12.57;4.80;;;;;;;30.26;51.94;98688.22;5054351;28;20197;-72
2022/05/29 10:38:41;;;;;;;11.00;5.20;;;;;;;30.20;52.08;98673.13;5054823;28;20201;-71
2022/05/29 10:41:11;;;;;;;8.53;5.30;;;;;;;30.23;51.76;98667.78;5054305;28;20279;-72
2022/05/29 10:43:44;;;;;;;8.43;4.83;;;;;;;30.34;53.15;98657.91;5054360;28;20203;-72
2022/05/29 10:46:18;;;;;;;13.53;5.50;;;;;;;30.32;51.65;98662.97;5054322;28;20246;-72
2022/05/29 10:49:08;;;;;;;7.37;4.90;;;;;;;30.45;51.96;98642.59;5054058;28;20189;-72
2022/05/29 10:51:59;;;;;;;12.40;5.07;;;;;;;30.23;51.36;98645.84;5054089;28;20239;-71
2022/05/29 10:54:40;;;;;;;9.97;4.80;;;;;;;30.27;51.11;98635.78;5054448;28;20227;-72
2022/05/29 10:57:26;;;;;;;12.40;5.00;;;;;;;30.40;51.43;98623.66;5053846;28;20184;-71
2022/05/29 11:00:07;;;;;;;9.37;4.70;;;;;;;30.30;51.68;98618.66;5054159;28;20220;-72
2022/05/29 11:05:56;;;;;;;9.57;4.83;;;;;;;30.43;50.11;98622.97;5053743;28;20318;-72
2022/05/29 11:08:36;;;;;;;8.87;4.47;;;;;;;30.39;50.47;98616.59;5053843;28;20185;-72
2022/05/29 11:11:18;;;;;;;7.97;4.80;;;;;;;30.57;49.89;98611.59;5065487;28;20192;-72
2022/05/29 11:14:04;;;;;;;13.90;5.77;;;;;;;30.74;49.52;98605.88;5074026;28;20181;-72
2022/05/29 11:16:42;;;;;;;9.50;4.83;;;;;;;30.66;49.44;98604.84;5073118;28;20189;-72
2022/05/29 11:19:34;;;;;;;8.40;4.57;;;;;;;30.71;49.69;98587.38;5073941;28;20188;-72
2022/05/29 11:22:13;;;;;;;9.67;5.57;;;;;;;30.69;49.62;98592.41;5073561;28;20184;-72
2022/05/29 11:24:55;;;;;;;10.20;4.83;;;;;;;30.66;49.53;98588.38;5073385;28;20189;-72
2022/05/29 11:27:41;;;;;;;7.77;5.07;;;;;;;30.66;50.14;98576.63;5072765;28;20724;-72
2022/05/29 11:30:15;;;;;;;8.53;4.80;;;;;;;30.61;50.28;98580.41;5073382;28;20241;-73
2022/05/29 11:33:09;;;;;;;10.40;4.83;;;;;;;30.65;50.11;98566.78;5073307;28;20308;-72
2022/05/29 11:35:47;;;;;;;10.63;5.47;;;;;;;30.78;50.92;98574.66;5072863;28;20660;-73
2022/05/29 11:38:49;;;;;;;7.50;4.53;;;;;;;30.79;50.91;98559.78;5072700;28;20188;-73
2022/05/29 11:41:21;;;;;;;12.97;4.40;;;;;;;30.84;52.02;98559.56;5073040;28;20665;-72
2022/05/29 11:43:55;;;;;;;8.40;5.07;;;;;;;30.99;51.94;98555.25;5073119;28;20249;-72
2022/05/29 11:52:21;;;;;;;17.73;5.80;;;;;;;30.62;50.10;98527.16;5072934;28;20179;-73
2022/05/29 11:54:59;;;;;;;8.80;4.87;;;;;;;30.77;49.70;98534.66;5073025;28;20642;-71
2022/05/29 11:57:32;;;;;;;9.40;5.37;;;;;;;30.24;51.04;98524.13;5073021;28;20241;-72
2022/05/29 12:00:04;;;;;;;10.93;6.30;;;;;;;30.37;51.63;98514.72;5072847;28;20208;-72
2022/05/29 12:02:40;;;;;;;10.73;7.87;;;;;;;30.33;52.05;98516.56;5072481;28;20185;-72
2022/05/29 12:05:17;;;;;;;12.13;5.32;;;;;;;30.19;52.89;98507.94;5073243;28;20848;-72
2022/05/29 12:07:51;;;;;;;15.70;5.13;;;;;;;30.51;51.88;98517.06;5072802;28;20188;-73
2022/05/29 12:10:22;;;;;;;9.20;5.30;;;;;;;30.52;52.08;98494.78;5067164;28;20647;-73
2022/05/29 12:12:57;;;;;;;6.97;5.73;;;;;;;30.51;52.28;98492.38;5052808;28;20274;-72
2022/05/29 12:15:24;;;;;;;11.57;5.47;;;;;;;30.69;52.70;98489.00;5052447;28;20652;-73
2022/05/29 12:17:58;;;;;;;10.23;5.37;;;;;;;30.79;52.68;98488.47;5052487;28;20660;-72
2022/05/29 12:20:39;;;;;;;7.30;5.50;;;;;;;30.78;53.18;98450.44;5052333;28;20244;-72
2022/05/29 12:23:18;;;;;;;8.60;5.13;;;;;;;30.82;53.15;98427.44;5052320;28;20184;-73
2022/05/29 12:25:54;;;;;;;8.33;5.70;;;;;;;31.00;52.62;98441.59;5052641;28;20180;-73
2022/05/29 12:28:29;;;;;;;8.30;5.83;;;;;;;31.03;52.65;98438.94;5053220;28;20272;-72